Time;durP1;ratioP1;P1;durP2;ratioP2;P2;SDS_P1;SDS_P2;PMS_P1;PMS_P2;Temp;Humidity;BMP_temperature;BMP_pressure;BME280_temperature;BME280_humidity;BME280_pressure;Samples;Min_cycle;Max_cycle;Signal;HPM_P1;HPM_P2
2021/05/26 00:00:57;;;;;;;14.05;3.63;;;;;;;;;;1457776;40;20442;-87
2021/05/26 00:01:59;;;;;;;16.20;5.03;;;;;;;;;;1457819;40;20415;-86
2021/05/26 00:03:02;;;;;;;16.00;4.00;;;;;;;;;;1461784;40;20477;-86
2021/05/26 00:04:04;;;;;;;16.38;4.10;;;;;;;;;;1461356;40;20432;-86
2021/05/26 00:05:07;;;;;;;17.00;4.20;;;;;;;;;;1458524;40;20574;-86
2021/05/26 00:06:08;;;;;;;18.75;4.60;;;;;;;;;;1462389;40;20835;-85
2021/05/26 00:07:10;;;;;;;18.55;5.05;;;;;;;;;;1456910;40;20486;-86
2021/05/26 00:08:12;;;;;;;13.57;4.53;;;;;;;;;;1453646;40;20545;-86
2021/05/26 00:09:13;;;;;;;16.75;4.55;;;;;;;;;;1461067;40;20434;-84
2021/05/26 00:10:16;;;;;;;16.73;4.27;;;;;;;;;;1461790;40;20656;-86
2021/05/26 00:11:19;;;;;;;13.32;4.35;;;;;;;;;;1461257;40;21024;-86
2021/05/26 00:12:21;;;;;;;22.35;5.38;;;;;;;;;;1453878;40;20427;-83
2021/05/26 00:13:23;;;;;;;27.67;6.05;;;;;;;;;;1455407;40;20446;-85
2021/05/26 00:14:25;;;;;;;26.45;6.30;;;;;;;;;;1461879;40;20416;-86
2021/05/26 00:15:27;;;;;;;27.13;6.03;;;;;;;;;;1461805;40;20740;-84
2021/05/26 00:16:30;;;;;;;30.35;6.63;;;;;;;;;;1465875;40;20475;-87
2021/05/26 00:17:31;;;;;;;33.72;7.30;;;;;;;;;;1462535;40;20452;-86
2021/05/26 00:18:34;;;;;;;28.92;6.75;;;;;;;;;;1457418;40;20450;-84
2021/05/26 00:19:37;;;;;;;27.88;5.97;;;;;;;;;;1465978;40;20406;-87
2021/05/26 00:20:39;;;;;;;36.73;6.33;;;;;;;;;;1469810;40;20515;-87
2021/05/26 00:21:41;;;;;;;33.90;6.88;;;;;;;;;;1466770;40;20707;-86
2021/05/26 00:22:42;;;;;;;29.23;5.45;;;;;;;;;;1462068;40;20413;-86
2021/05/26 00:23:44;;;;;;;28.58;6.38;;;;;;;;;;1450954;40;20782;-88
2021/05/26 00:24:46;;;;;;;37.67;6.28;;;;;;;;;;1453822;40;20424;-88
2021/05/26 00:25:48;;;;;;;24.77;6.65;;;;;;;;;;1457408;40;20543;-88
2021/05/26 00:26:50;;;;;;;31.48;6.43;;;;;;;;;;1457719;40;20433;-87
2021/05/26 00:27:58;;;;;;;30.67;6.28;;;;;;;;;;1453735;40;20416;-90
2021/05/26 00:28:59;;;;;;;21.17;4.53;;;;;;;;;;1455212;40;20448;-89
2021/05/26 00:30:01;;;;;;;21.58;4.47;;;;;;;;;;1461401;40;20421;-89
2021/05/26 00:31:05;;;;;;;19.73;3.67;;;;;;;;;;1465006;40;20451;-85
2021/05/26 00:32:07;;;;;;;19.13;4.13;;;;;;;;;;1465688;40;20444;-86
2021/05/26 00:33:08;;;;;;;18.38;3.88;;;;;;;;;;1469731;40;20406;-86
2021/05/26 00:34:10;;;;;;;20.40;3.90;;;;;;;;;;1469432;40;20438;-86
2021/05/26 00:35:12;;;;;;;18.88;4.57;;;;;;;;;;1462324;40;20881;-85
2021/05/26 00:36:14;;;;;;;20.85;4.40;;;;;;;;;;1456456;40;20427;-86
2021/05/26 00:37:16;;;;;;;25.33;5.00;;;;;;;;;;1460361;40;20432;-85
2021/05/26 00:38:19;;;;;;;20.55;4.57;;;;;;;;;;1461322;40;20448;-86
2021/05/26 00:39:21;;;;;;;27.40;4.43;;;;;;;;;;1455027;40;20436;-86
2021/05/26 00:40:23;;;;;;;27.13;4.97;;;;;;;;;;1465731;40;20403;-86
2021/05/26 00:41:28;;;;;;;23.00;4.28;;;;;;;;;;1465408;40;20848;-87
2021/05/26 00:42:30;;;;;;;18.77;3.60;;;;;;;;;;1461072;40;20778;-87
2021/05/26 00:43:32;;;;;;;21.83;4.90;;;;;;;;;;1454106;40;20428;-88
2021/05/26 00:44:33;;;;;;;22.83;5.15;;;;;;;;;;1453190;40;20448;-87
2021/05/26 00:45:35;;;;;;;16.88;3.38;;;;;;;;;;1458033;40;20414;-88
2021/05/26 00:46:44;;;;;;;14.20;3.47;;;;;;;;;;1461875;40;20783;-87
2021/05/26 00:47:48;;;;;;;12.98;2.65;;;;;;;;;;1462625;40;20421;-86
2021/05/26 00:48:50;;;;;;;7.40;2.22;;;;;;;;;;1462097;40;20425;-87
2021/05/26 00:49:51;;;;;;;7.85;2.17;;;;;;;;;;1458680;40;20469;-88
2021/05/26 00:50:53;;;;;;;10.80;2.13;;;;;;;;;;1453776;40;20428;-88
2021/05/26 00:51:55;;;;;;;7.93;2.30;;;;;;;;;;1455844;40;20815;-87
2021/05/26 00:53:06;;;;;;;9.10;2.20;;;;;;;;;;1466404;40;20420;-87
2021/05/26 00:54:07;;;;;;;10.30;2.25;;;;;;;;;;1466500;40;20419;-88
2021/05/26 00:55:15;;;;;;;9.45;2.13;;;;;;;;;;1465419;40;20716;-87
2021/05/26 00:56:16;;;;;;;12.35;3.25;;;;;;;;;;1466944;40;21010;-87
2021/05/26 00:57:18;;;;;;;8.73;2.50;;;;;;;;;;1461186;40;20823;-88
2021/05/26 00:58:20;;;;;;;12.93;2.60;;;;;;;;;;1459720;40;20438;-87
2021/05/26 00:59:21;;;;;;;11.88;3.50;;;;;;;;;;1458056;40;20498;-88
2021/05/26 01:00:25;;;;;;;12.30;3.60;;;;;;;;;;1462888;40;20431;-86
2021/05/26 01:01:27;;;;;;;11.90;3.65;;;;;;;;;;1467208;40;20525;-87
2021/05/26 01:02:28;;;;;;;13.85;3.50;;;;;;;;;;1467690;40;20413;-87
2021/05/26 01:03:32;;;;;;;15.07;3.88;;;;;;;;;;1467374;40;20428;-87
2021/05/26 01:04:33;;;;;;;8.80;3.08;;;;;;;;;;1467468;40;20409;-87
2021/05/26 01:05:35;;;;;;;13.17;2.93;;;;;;;;;;1467187;40;20530;-88
2021/05/26 01:06:36;;;;;;;14.10;3.10;;;;;;;;;;1463005;40;20421;-87
2021/05/26 01:07:39;;;;;;;16.52;4.10;;;;;;;;;;1458432;40;20460;-87
2021/05/26 01:08:41;;;;;;;15.80;3.90;;;;;;;;;;1467309;40;20412;-87
2021/05/26 01:09:43;;;;;;;11.43;3.63;;;;;;;;;;1462075;40;20505;-86
2021/05/26 01:10:44;;;;;;;10.50;2.80;;;;;;;;;;1461867;40;20453;-87
2021/05/26 01:11:46;;;;;;;19.60;4.50;;;;;;;;;;1461887;40;20742;-86
2021/05/26 01:12:48;;;;;;;16.38;3.90;;;;;;;;;;1457879;40;20412;-86
2021/05/26 01:13:49;;;;;;;14.50;3.70;;;;;;;;;;1458128;40;20856;-87
2021/05/26 01:14:51;;;;;;;22.40;4.55;;;;;;;;;;1463320;40;20448;-86
2021/05/26 01:15:53;;;;;;;12.43;3.35;;;;;;;;;;1470409;40;20486;-87
2021/05/26 01:16:54;;;;;;;22.30;4.25;;;;;;;;;;1469947;40;20802;-85
2021/05/26 01:17:58;;;;;;;15.23;3.92;;;;;;;;;;1462267;40;20417;-88
2021/05/26 01:19:00;;;;;;;12.93;4.00;;;;;;;;;;1462239;40;20428;-88
2021/05/26 01:20:08;;;;;;;15.73;3.33;;;;;;;;;;1466491;40;20467;-87
2021/05/26 01:21:12;;;;;;;18.67;4.35;;;;;;;;;;1462013;40;20421;-88
2021/05/26 01:22:14;;;;;;;15.63;3.78;;;;;;;;;;1455831;40;20790;-88
2021/05/26 01:23:17;;;;;;;13.57;3.72;;;;;;;;;;1453895;40;20992;-88
2021/05/26 01:24:19;;;;;;;13.93;3.17;;;;;;;;;;1450139;40;20430;-88
2021/05/26 01:25:20;;;;;;;10.10;2.97;;;;;;;;;;1450207;40;20478;-87
2021/05/26 01:26:22;;;;;;;8.15;3.05;;;;;;;;;;1458194;40;20473;-87
2021/05/26 01:27:24;;;;;;;9.68;2.67;;;;;;;;;;1462541;40;20525;-87
2021/05/26 01:28:28;;;;;;;10.00;3.20;;;;;;;;;;1471208;40;20419;-87
2021/05/26 01:29:30;;;;;;;12.23;2.85;;;;;;;;;;1471510;40;20494;-87
2021/05/26 01:30:31;;;;;;;8.82;2.45;;;;;;;;;;1463336;40;20426;-87
2021/05/26 01:31:33;;;;;;;9.57;2.38;;;;;;;;;;1455453;40;20434;-85
2021/05/26 01:32:46;;;;;;;4.95;2.17;;;;;;;;;;1454581;40;20434;-86
2021/05/26 01:33:48;;;;;;;5.97;2.17;;;;;;;;;;1462062;40;20406;-87
2021/05/26 01:34:50;;;;;;;5.53;1.77;;;;;;;;;;1468698;40;20399;-87
2021/05/26 01:35:52;;;;;;;5.28;1.60;;;;;;;;;;1464721;40;20440;-87
2021/05/26 01:36:54;;;;;;;7.03;1.55;;;;;;;;;;1460768;40;20463;-88
2021/05/26 01:37:55;;;;;;;6.55;2.10;;;;;;;;;;1464162;40;20417;-89
2021/05/26 01:38:57;;;;;;;5.40;1.60;;;;;;;;;;1467026;40;20422;-88
2021/05/26 01:39:58;;;;;;;7.72;1.73;;;;;;;;;;1466589;40;20514;-88
2021/05/26 01:41:02;;;;;;;4.93;1.42;;;;;;;;;;1461922;40;20810;-88
2021/05/26 01:42:04;;;;;;;6.57;1.80;;;;;;;;;;1462625;40;20572;-89
2021/05/26 01:43:06;;;;;;;5.38;1.65;;;;;;;;;;1466485;40;20411;-88
2021/05/26 01:44:08;;;;;;;5.75;1.58;;;;;;;;;;1466587;40;21100;-88
2021/05/26 01:45:11;;;;;;;4.38;1.65;;;;;;;;;;1466784;40;20431;-87
2021/05/26 01:46:13;;;;;;;7.57;1.55;;;;;;;;;;1464416;40;20413;-88
2021/05/26 01:47:14;;;;;;;7.10;1.70;;;;;;;;;;1464547;40;20429;-88
2021/05/26 01:48:16;;;;;;;6.05;2.03;;;;;;;;;;1470640;40;20535;-87
2021/05/26 01:49:18;;;;;;;7.47;2.20;;;;;;;;;;1461891;40;20467;-87
2021/05/26 01:50:21;;;;;;;6.20;2.78;;;;;;;;;;1461864;40;20585;-86
2021/05/26 01:51:23;;;;;;;6.40;2.22;;;;;;;;;;1465513;40;20413;-88
2021/05/26 01:52:24;;;;;;;10.77;2.70;;;;;;;;;;1458600;40;20436;-88
2021/05/26 01:53:27;;;;;;;8.82;2.85;;;;;;;;;;1455598;40;20803;-89
2021/05/26 01:54:28;;;;;;;6.18;2.67;;;;;;;;;;1467636;40;20478;-89
2021/05/26 01:55:34;;;;;;;8.77;2.70;;;;;;;;;;1459279;40;20928;-88
2021/05/26 01:56:38;;;;;;;10.57;3.05;;;;;;;;;;1455825;40;20805;-88
2021/05/26 01:57:43;;;;;;;11.18;3.30;;;;;;;;;;1459776;40;20497;-87
2021/05/26 01:58:48;;;;;;;14.63;2.85;;;;;;;;;;1466075;40;20405;-87
2021/05/26 01:59:50;;;;;;;14.18;3.67;;;;;;;;;;1466459;40;20389;-87
2021/05/26 02:00:51;;;;;;;10.15;3.30;;;;;;;;;;1465996;40;20471;-87
2021/05/26 02:01:53;;;;;;;9.80;3.40;;;;;;;;;;1464178;40;20413;-87
2021/05/26 02:02:54;;;;;;;13.27;4.15;;;;;;;;;;1463303;40;20791;-87
2021/05/26 02:03:57;;;;;;;11.02;3.92;;;;;;;;;;1463407;40;20420;-87
2021/05/26 02:04:58;;;;;;;11.88;4.07;;;;;;;;;;1464940;40;20413;-87
2021/05/26 02:06:00;;;;;;;12.83;5.10;;;;;;;;;;1465750;40;20567;-88
2021/05/26 02:07:07;;;;;;;12.45;4.60;;;;;;;;;;1465818;40;20460;-87
2021/05/26 02:08:09;;;;;;;13.55;5.82;;;;;;;;;;1463071;40;20397;-87
2021/05/26 02:09:10;;;;;;;15.15;4.60;;;;;;;;;;1461122;40;20421;-87
2021/05/26 02:10:15;;;;;;;13.48;4.93;;;;;;;;;;1461360;40;20428;-87
2021/05/26 02:12:39;;;;;;;15.98;5.65;;;;;;;;;;1467337;40;20422;-87
2021/05/26 02:13:41;;;;;;;14.75;5.55;;;;;;;;;;1466868;40;20410;-87
2021/05/26 02:14:42;;;;;;;13.23;5.30;;;;;;;;;;1461795;40;20451;-86
2021/05/26 02:15:44;;;;;;;16.95;5.03;;;;;;;;;;1462482;40;20428;-87
2021/05/26 02:16:45;;;;;;;11.75;5.13;;;;;;;;;;1467513;40;20415;-86
2021/05/26 02:17:47;;;;;;;16.35;5.80;;;;;;;;;;1463158;40;20479;-87
2021/05/26 02:18:48;;;;;;;12.05;5.18;;;;;;;;;;1454932;40;20441;-87
2021/05/26 02:19:51;;;;;;;20.55;5.70;;;;;;;;;;1458675;40;20427;-87
2021/05/26 02:20:52;;;;;;;18.75;6.18;;;;;;;;;;1462703;40;20476;-87
2021/05/26 02:21:54;;;;;;;12.77;5.00;;;;;;;;;;1466875;40;20812;-87
2021/05/26 02:22:55;;;;;;;13.73;4.93;;;;;;;;;;1463258;40;20449;-87
2021/05/26 02:23:57;;;;;;;12.25;4.97;;;;;;;;;;1463025;40;20424;-88
2021/05/26 02:24:59;;;;;;;15.50;4.78;;;;;;;;;;1462843;40;20421;-87
2021/05/26 02:26:01;;;;;;;12.05;4.53;;;;;;;;;;1458897;40;20497;-87
2021/05/26 02:27:03;;;;;;;19.13;5.10;;;;;;;;;;1459183;40;20547;-87
2021/05/26 02:28:05;;;;;;;14.30;5.17;;;;;;;;;;1463318;40;20909;-87
2021/05/26 02:29:07;;;;;;;12.32;4.25;;;;;;;;;;1463152;40;20413;-87
2021/05/26 02:30:09;;;;;;;7.97;3.42;;;;;;;;;;1463013;40;20416;-88
2021/05/26 02:31:11;;;;;;;13.57;3.95;;;;;;;;;;1458628;40;20433;-87
2021/05/26 02:32:13;;;;;;;12.20;4.15;;;;;;;;;;1462605;40;20428;-87
2021/05/26 02:33:14;;;;;;;13.00;3.72;;;;;;;;;;1462817;40;20452;-87
2021/05/26 02:34:17;;;;;;;11.02;4.30;;;;;;;;;;1465795;40;20466;-88
2021/05/26 02:35:18;;;;;;;17.33;4.28;;;;;;;;;;1464458;40;20427;-87
2021/05/26 02:36:20;;;;;;;13.93;5.00;;;;;;;;;;1462606;40;20433;-87
2021/05/26 02:37:22;;;;;;;13.15;4.05;;;;;;;;;;1462443;40;20405;-87
2021/05/26 02:38:23;;;;;;;14.68;3.40;;;;;;;;;;1462052;40;20786;-88
2021/05/26 02:39:25;;;;;;;10.65;3.25;;;;;;;;;;1462248;40;20468;-87
2021/05/26 02:40:27;;;;;;;11.80;3.23;;;;;;;;;;1462846;40;20600;-86
2021/05/26 02:41:28;;;;;;;10.40;3.00;;;;;;;;;;1465312;40;20833;-87
2021/05/26 02:42:30;;;;;;;14.45;3.13;;;;;;;;;;1462049;40;20442;-85
2021/05/26 02:43:31;;;;;;;13.40;2.97;;;;;;;;;;1457899;40;20411;-87
2021/05/26 02:44:33;;;;;;;12.13;3.20;;;;;;;;;;1461808;40;20441;-87
2021/05/26 02:45:34;;;;;;;12.55;3.17;;;;;;;;;;1462490;40;20453;-87
2021/05/26 02:46:36;;;;;;;10.98;3.10;;;;;;;;;;1462359;40;20431;-88
2021/05/26 02:47:38;;;;;;;14.43;3.58;;;;;;;;;;1470328;40;20803;-88
2021/05/26 02:48:39;;;;;;;15.95;3.20;;;;;;;;;;1461929;40;20746;-87
2021/05/26 02:49:41;;;;;;;9.57;3.38;;;;;;;;;;1462026;40;20413;-88
2021/05/26 02:50:43;;;;;;;15.38;3.70;;;;;;;;;;1471119;40;20504;-87
2021/05/26 02:51:45;;;;;;;12.83;4.13;;;;;;;;;;1468039;40;20416;-87
2021/05/26 02:52:47;;;;;;;7.05;2.38;;;;;;;;;;1464527;40;20491;-87
2021/05/26 02:53:49;;;;;;;14.75;3.38;;;;;;;;;;1468287;40;20789;-88
2021/05/26 02:54:51;;;;;;;11.40;3.08;;;;;;;;;;1467338;40;20399;-87
2021/05/26 02:55:52;;;;;;;19.73;4.38;;;;;;;;;;1466471;40;20526;-87
2021/05/26 02:56:54;;;;;;;14.95;4.38;;;;;;;;;;1466278;40;20408;-87
2021/05/26 02:57:56;;;;;;;11.77;2.75;;;;;;;;;;1464484;40;20410;-88
2021/05/26 02:58:57;;;;;;;14.23;3.33;;;;;;;;;;1458363;40;20434;-88
2021/05/26 02:59:59;;;;;;;12.77;3.17;;;;;;;;;;1461072;40;20948;-87
2021/05/26 03:01:01;;;;;;;12.70;3.60;;;;;;;;;;1466873;40;20430;-86
2021/05/26 03:02:03;;;;;;;13.07;2.95;;;;;;;;;;1461775;40;20425;-87
2021/05/26 03:03:05;;;;;;;15.52;3.92;;;;;;;;;;1458036;40;21076;-88
2021/05/26 03:04:06;;;;;;;22.17;5.00;;;;;;;;;;1466252;40;20682;-88
2021/05/26 03:05:10;;;;;;;12.73;3.80;;;;;;;;;;1471012;40;20417;-87
2021/05/26 03:06:12;;;;;;;15.40;3.88;;;;;;;;;;1470111;40;20472;-87
2021/05/26 03:07:15;;;;;;;14.20;3.78;;;;;;;;;;1464855;40;20436;-88
2021/05/26 03:08:16;;;;;;;13.68;3.88;;;;;;;;;;1457404;40;20447;-88
2021/05/26 03:09:18;;;;;;;18.10;3.88;;;;;;;;;;1450164;40;20438;-87
2021/05/26 03:10:21;;;;;;;13.48;3.72;;;;;;;;;;1454439;40;20430;-88
2021/05/26 03:11:23;;;;;;;14.68;3.95;;;;;;;;;;1458148;40;20684;-88
2021/05/26 03:12:24;;;;;;;17.58;3.83;;;;;;;;;;1464476;40;20535;-88
2021/05/26 03:13:27;;;;;;;16.02;4.47;;;;;;;;;;1457809;40;20530;-88
2021/05/26 03:14:28;;;;;;;14.13;3.63;;;;;;;;;;1458272;40;20460;-88
2021/05/26 03:15:30;;;;;;;17.42;5.20;;;;;;;;;;1462457;40;20408;-87
2021/05/26 03:16:31;;;;;;;20.67;4.32;;;;;;;;;;1457775;40;20426;-86
2021/05/26 03:17:34;;;;;;;15.50;4.43;;;;;;;;;;1453853;40;20829;-86
2021/05/26 03:18:37;;;;;;;19.73;4.75;;;;;;;;;;1453796;40;20540;-86
2021/05/26 03:19:39;;;;;;;25.17;5.10;;;;;;;;;;1454247;40;20850;-86
2021/05/26 03:20:41;;;;;;;22.23;5.10;;;;;;;;;;1457685;40;20489;-84
2021/05/26 03:21:42;;;;;;;21.98;5.28;;;;;;;;;;1463120;40;20473;-86
2021/05/26 03:22:44;;;;;;;13.65;4.35;;;;;;;;;;1465242;40;20416;-87
2021/05/26 03:23:45;;;;;;;21.63;4.68;;;;;;;;;;1461883;40;20812;-85
2021/05/26 03:24:47;;;;;;;23.30;4.55;;;;;;;;;;1462452;40;20432;-86
2021/05/26 03:25:49;;;;;;;25.40;5.30;;;;;;;;;;1466845;40;20497;-86
2021/05/26 03:26:51;;;;;;;15.20;4.35;;;;;;;;;;1467735;40;20431;-87
2021/05/26 03:27:52;;;;;;;16.65;4.35;;;;;;;;;;1465995;40;20438;-86
2021/05/26 03:28:54;;;;;;;21.98;4.70;;;;;;;;;;1468698;40;20418;-88
2021/05/26 03:29:56;;;;;;;18.27;4.22;;;;;;;;;;1475254;40;20417;-88
2021/05/26 03:30:57;;;;;;;23.42;5.10;;;;;;;;;;1475512;40;20422;-87
2021/05/26 03:31:59;;;;;;;16.55;4.18;;;;;;;;;;1474719;40;20417;-87
2021/05/26 03:33:04;;;;;;;20.25;4.40;;;;;;;;;;1467624;40;20427;-87
2021/05/26 03:34:06;;;;;;;16.20;4.10;;;;;;;;;;1470915;40;20437;-87
2021/05/26 03:35:10;;;;;;;20.75;4.63;;;;;;;;;;1471004;40;20420;-86
2021/05/26 03:36:12;;;;;;;20.10;4.40;;;;;;;;;;1467691;40;20789;-86
2021/05/26 03:37:14;;;;;;;24.20;3.80;;;;;;;;;;1459496;40;21115;-86
2021/05/26 03:38:15;;;;;;;15.20;4.25;;;;;;;;;;1454242;40;20538;-87
2021/05/26 03:39:17;;;;;;;16.27;3.35;;;;;;;;;;1461697;40;20428;-86
2021/05/26 03:40:19;;;;;;;16.50;3.58;;;;;;;;;;1458186;40;20426;-86
2021/05/26 03:41:20;;;;;;;20.70;4.32;;;;;;;;;;1459426;40;20417;-86
2021/05/26 03:42:22;;;;;;;14.60;3.28;;;;;;;;;;1461557;40;20420;-88
2021/05/26 03:43:24;;;;;;;20.63;3.78;;;;;;;;;;1457887;40;20422;-86
2021/05/26 03:44:26;;;;;;;17.15;4.25;;;;;;;;;;1458540;40;20415;-87
2021/05/26 03:45:30;;;;;;;17.17;3.63;;;;;;;;;;1461600;40;20401;-87
2021/05/26 03:46:31;;;;;;;15.55;3.67;;;;;;;;;;1462901;40;20425;-88
2021/05/26 03:47:34;;;;;;;20.35;3.42;;;;;;;;;;1470381;40;20449;-86
2021/05/26 03:48:35;;;;;;;13.70;4.00;;;;;;;;;;1466260;40;20418;-86
2021/05/26 03:49:37;;;;;;;16.13;3.17;;;;;;;;;;1464996;40;20419;-85
2021/05/26 03:50:39;;;;;;;15.25;2.90;;;;;;;;;;1466123;40;20510;-86
2021/05/26 03:51:41;;;;;;;20.60;3.58;;;;;;;;;;1463085;40;20436;-86
2021/05/26 03:52:44;;;;;;;15.23;3.33;;;;;;;;;;1460964;40;20424;-86
2021/05/26 03:53:46;;;;;;;19.27;4.07;;;;;;;;;;1464503;40;20468;-86
2021/05/26 03:54:47;;;;;;;16.80;4.00;;;;;;;;;;1460517;40;20414;-85
2021/05/26 03:55:49;;;;;;;20.17;3.60;;;;;;;;;;1466285;40;20501;-87
2021/05/26 03:56:51;;;;;;;14.32;3.80;;;;;;;;;;1465066;40;20536;-87
2021/05/26 03:57:53;;;;;;;16.15;2.95;;;;;;;;;;1464477;40;20402;-87
2021/05/26 03:58:56;;;;;;;15.27;3.33;;;;;;;;;;1462194;40;20472;-87
2021/05/26 03:59:58;;;;;;;16.00;3.25;;;;;;;;;;1462035;40;20412;-87
2021/05/26 04:00:59;;;;;;;15.95;3.13;;;;;;;;;;1458409;40;20422;-88
2021/05/26 04:02:01;;;;;;;20.48;3.85;;;;;;;;;;1456826;40;20442;-87
2021/05/26 04:03:02;;;;;;;17.27;4.00;;;;;;;;;;1462317;40;20433;-87
2021/05/26 04:04:05;;;;;;;16.77;4.35;;;;;;;;;;1465909;40;20482;-87
2021/05/26 04:05:07;;;;;;;13.27;4.10;;;;;;;;;;1465862;40;20419;-87
2021/05/26 04:06:09;;;;;;;15.35;3.47;;;;;;;;;;1457701;40;20423;-86
2021/05/26 04:07:12;;;;;;;20.40;4.63;;;;;;;;;;1456433;40;20419;-87
2021/05/26 04:08:14;;;;;;;14.60;4.50;;;;;;;;;;1453846;40;20416;-87
2021/05/26 04:09:17;;;;;;;21.65;3.92;;;;;;;;;;1452938;40;20416;-87
2021/05/26 04:10:19;;;;;;;21.37;3.90;;;;;;;;;;1458151;40;20586;-86
2021/05/26 04:11:20;;;;;;;18.88;4.82;;;;;;;;;;1453657;40;20733;-87
2021/05/26 04:12:24;;;;;;;14.35;4.10;;;;;;;;;;1458118;40;20410;-89
2021/05/26 04:13:26;;;;;;;21.50;4.47;;;;;;;;;;1454525;40;20725;-87
2021/05/26 04:14:27;;;;;;;18.80;4.85;;;;;;;;;;1458945;40;20497;-87
2021/05/26 04:15:29;;;;;;;15.63;4.70;;;;;;;;;;1461348;40;20897;-87
2021/05/26 04:16:31;;;;;;;21.10;4.85;;;;;;;;;;1465594;40;20414;-87
2021/05/26 04:17:33;;;;;;;18.48;4.80;;;;;;;;;;1461915;40;20431;-88
2021/05/26 04:18:34;;;;;;;19.27;6.07;;;;;;;;;;1457778;40;20474;-88
2021/05/26 04:19:36;;;;;;;16.42;5.10;;;;;;;;;;1462042;40;20436;-87
2021/05/26 04:20:38;;;;;;;19.88;5.50;;;;;;;;;;1453768;40;20420;-87
2021/05/26 04:21:39;;;;;;;21.35;5.50;;;;;;;;;;1456676;40;20761;-88
2021/05/26 04:22:41;;;;;;;20.35;6.15;;;;;;;;;;1457695;40;20454;-88
2021/05/26 04:23:43;;;;;;;22.63;5.68;;;;;;;;;;1460537;40;20411;-88
2021/05/26 04:24:46;;;;;;;17.60;5.43;;;;;;;;;;1466184;40;20459;-87
2021/05/26 04:25:51;;;;;;;15.52;5.10;;;;;;;;;;1465986;40;20873;-88
2021/05/26 04:26:52;;;;;;;21.02;6.30;;;;;;;;;;1460752;40;20405;-87
2021/05/26 04:27:54;;;;;;;18.42;6.28;;;;;;;;;;1460599;40;20414;-88
2021/05/26 04:28:56;;;;;;;26.23;6.30;;;;;;;;;;1462697;40;20682;-88
2021/05/26 04:29:59;;;;;;;17.45;5.90;;;;;;;;;;1454688;40;20484;-87
2021/05/26 04:31:01;;;;;;;16.55;5.95;;;;;;;;;;1450436;40;20426;-87
2021/05/26 04:32:06;;;;;;;19.02;6.03;;;;;;;;;;1464814;40;20412;-87
2021/05/26 04:33:08;;;;;;;22.05;6.55;;;;;;;;;;1460075;40;20462;-86
2021/05/26 04:34:16;;;;;;;17.70;6.00;;;;;;;;;;1464093;40;20408;-86
2021/05/26 04:35:17;;;;;;;25.88;7.20;;;;;;;;;;1460173;40;20504;-86
2021/05/26 04:36:19;;;;;;;19.80;6.53;;;;;;;;;;1449443;40;20455;-85
2021/05/26 04:37:20;;;;;;;20.67;6.18;;;;;;;;;;1455787;40;20439;-87
2021/05/26 04:38:22;;;;;;;20.27;6.70;;;;;;;;;;1457684;40;20410;-87
2021/05/26 04:39:25;;;;;;;21.05;6.53;;;;;;;;;;1457861;40;20483;-87
2021/05/26 04:40:27;;;;;;;18.77;6.30;;;;;;;;;;1458361;40;20419;-85
2021/05/26 04:41:28;;;;;;;17.73;6.40;;;;;;;;;;1453573;40;20999;-87
2021/05/26 04:42:30;;;;;;;19.67;6.35;;;;;;;;;;1457151;40;20411;-87
2021/05/26 04:43:32;;;;;;;25.33;7.55;;;;;;;;;;1458085;40;20824;-87
2021/05/26 04:44:34;;;;;;;23.90;7.75;;;;;;;;;;1457345;40;20423;-88
2021/05/26 04:45:36;;;;;;;18.27;6.55;;;;;;;;;;1454183;40;20416;-87
2021/05/26 04:46:38;;;;;;;21.20;7.35;;;;;;;;;;1453570;40;20432;-87
2021/05/26 04:47:40;;;;;;;24.20;7.80;;;;;;;;;;1460327;40;20417;-88
2021/05/26 04:48:41;;;;;;;15.32;7.82;;;;;;;;;;1461562;40;20551;-88
2021/05/26 04:49:43;;;;;;;17.50;7.38;;;;;;;;;;1461983;40;20429;-89
2021/05/26 04:50:45;;;;;;;22.00;7.78;;;;;;;;;;1457774;40;20414;-88
2021/05/26 04:51:46;;;;;;;21.85;7.10;;;;;;;;;;1456223;40;21380;-88
2021/05/26 04:52:48;;;;;;;18.33;7.03;;;;;;;;;;1462103;40;20428;-88
2021/05/26 04:53:49;;;;;;;17.73;6.90;;;;;;;;;;1458035;40;20443;-88
2021/05/26 04:54:51;;;;;;;20.88;6.47;;;;;;;;;;1458124;40;20450;-88
2021/05/26 04:55:53;;;;;;;20.25;6.60;;;;;;;;;;1461630;40;20894;-86
2021/05/26 04:56:55;;;;;;;17.38;6.72;;;;;;;;;;1462205;40;20504;-87
2021/05/26 04:58:04;;;;;;;18.63;7.00;;;;;;;;;;1460038;40;20788;-88
2021/05/26 04:59:05;;;;;;;21.50;7.43;;;;;;;;;;1462938;40;20409;-89
2021/05/26 05:00:08;;;;;;;21.58;7.32;;;;;;;;;;1458594;40;20434;-88
2021/05/26 05:01:10;;;;;;;23.15;7.13;;;;;;;;;;1454110;40;20946;-86
2021/05/26 05:02:11;;;;;;;19.55;6.90;;;;;;;;;;1454321;40;20424;-87
2021/05/26 05:03:13;;;;;;;19.52;7.25;;;;;;;;;;1458740;40;20498;-87
2021/05/26 05:04:15;;;;;;;22.40;7.65;;;;;;;;;;1461199;40;20433;-87
2021/05/26 05:05:16;;;;;;;20.73;7.57;;;;;;;;;;1467383;40;20430;-87
2021/05/26 05:06:21;;;;;;;22.48;7.72;;;;;;;;;;1467154;40;20448;-86
2021/05/26 05:07:22;;;;;;;20.80;7.50;;;;;;;;;;1460448;40;20461;-86
2021/05/26 05:08:24;;;;;;;22.88;7.18;;;;;;;;;;1459512;40;21033;-87
2021/05/26 05:09:25;;;;;;;22.77;7.63;;;;;;;;;;1463596;40;20437;-87
2021/05/26 05:10:28;;;;;;;15.27;7.20;;;;;;;;;;1463338;40;20422;-88
2021/05/26 05:11:29;;;;;;;16.57;6.77;;;;;;;;;;1466467;40;20451;-87
2021/05/26 05:12:31;;;;;;;18.63;8.25;;;;;;;;;;1459586;40;20442;-89
2021/05/26 05:13:33;;;;;;;19.17;7.20;;;;;;;;;;1463476;40;20421;-87
2021/05/26 05:14:35;;;;;;;17.23;6.75;;;;;;;;;;1467970;40;20420;-88
2021/05/26 05:15:37;;;;;;;20.00;8.18;;;;;;;;;;1468103;40;20809;-88
2021/05/26 05:16:38;;;;;;;21.65;7.65;;;;;;;;;;1464513;40;20532;-88
2021/05/26 05:17:41;;;;;;;19.50;7.38;;;;;;;;;;1466748;40;20809;-89
2021/05/26 05:18:42;;;;;;;19.45;7.78;;;;;;;;;;1466173;40;20466;-88
2021/05/26 05:19:44;;;;;;;21.88;7.97;;;;;;;;;;1462085;40;20565;-89
2021/05/26 05:20:46;;;;;;;17.58;7.07;;;;;;;;;;1461656;40;20814;-88
2021/05/26 05:21:47;;;;;;;20.73;7.40;;;;;;;;;;1455234;40;20414;-87
2021/05/26 05:22:53;;;;;;;17.13;7.25;;;;;;;;;;1454368;40;20420;-89
2021/05/26 05:23:56;;;;;;;16.47;8.07;;;;;;;;;;1462096;40;20420;-88
2021/05/26 05:24:57;;;;;;;16.55;7.45;;;;;;;;;;1461679;40;20416;-88
2021/05/26 05:25:59;;;;;;;19.83;7.18;;;;;;;;;;1453670;40;20425;-87
2021/05/26 05:27:00;;;;;;;19.50;6.82;;;;;;;;;;1454288;40;20440;-88
2021/05/26 05:28:05;;;;;;;22.98;7.88;;;;;;;;;;1457873;40;20741;-88
2021/05/26 05:29:06;;;;;;;13.77;6.60;;;;;;;;;;1457054;40;20419;-87
2021/05/26 05:30:09;;;;;;;17.15;6.93;;;;;;;;;;1454805;40;20419;-88
2021/05/26 05:31:10;;;;;;;13.35;7.47;;;;;;;;;;1453839;40;20476;-89
2021/05/26 05:32:12;;;;;;;15.55;6.10;;;;;;;;;;1454817;40;20419;-88
2021/05/26 05:33:14;;;;;;;18.75;6.85;;;;;;;;;;1461759;40;20439;-89
2021/05/26 05:34:15;;;;;;;16.70;6.93;;;;;;;;;;1465758;40;20435;-88
2021/05/26 05:35:17;;;;;;;14.70;7.00;;;;;;;;;;1457682;40;20506;-88
2021/05/26 05:36:19;;;;;;;21.58;7.45;;;;;;;;;;1462202;40;20413;-87
2021/05/26 05:37:20;;;;;;;20.77;7.68;;;;;;;;;;1455237;40;20437;-89
2021/05/26 05:38:22;;;;;;;16.17;6.65;;;;;;;;;;1458105;40;20435;-88
2021/05/26 05:39:24;;;;;;;15.88;5.45;;;;;;;;;;1457538;40;20441;-88
2021/05/26 05:40:25;;;;;;;14.25;6.13;;;;;;;;;;1461056;40;20413;-88
2021/05/26 05:41:27;;;;;;;18.50;7.05;;;;;;;;;;1462356;40;20405;-88
2021/05/26 05:42:29;;;;;;;16.40;7.43;;;;;;;;;;1457363;40;20691;-88
2021/05/26 05:43:31;;;;;;;16.63;6.63;;;;;;;;;;1457750;40;20424;-88
2021/05/26 05:44:32;;;;;;;18.97;6.90;;;;;;;;;;1457264;40;20510;-88
2021/05/26 05:45:34;;;;;;;15.98;6.55;;;;;;;;;;1452802;40;20527;-87
2021/05/26 05:46:35;;;;;;;17.17;6.38;;;;;;;;;;1453664;40;20706;-88
2021/05/26 05:47:37;;;;;;;14.77;6.72;;;;;;;;;;1466257;40;20415;-88
2021/05/26 05:48:39;;;;;;;22.20;7.07;;;;;;;;;;1461839;40;20689;-87
2021/05/26 05:49:40;;;;;;;15.75;6.63;;;;;;;;;;1460390;40;20466;-87
2021/05/26 05:50:43;;;;;;;15.50;6.90;;;;;;;;;;1462494;40;20411;-88
2021/05/26 05:51:45;;;;;;;15.30;6.50;;;;;;;;;;1458128;40;20427;-88
2021/05/26 05:52:49;;;;;;;17.83;7.28;;;;;;;;;;1462388;40;20430;-89
2021/05/26 05:53:51;;;;;;;18.67;7.10;;;;;;;;;;1462593;40;20465;-88
2021/05/26 05:54:53;;;;;;;16.77;7.07;;;;;;;;;;1463872;40;20431;-88
2021/05/26 05:55:58;;;;;;;16.17;6.50;;;;;;;;;;1467443;40;20405;-89
2021/05/26 05:56:59;;;;;;;18.40;6.95;;;;;;;;;;1467163;40;20421;-87
2021/05/26 05:58:03;;;;;;;15.10;7.40;;;;;;;;;;1461333;40;20431;-88
2021/05/26 05:59:04;;;;;;;20.92;7.72;;;;;;;;;;1462781;40;20480;-88
2021/05/26 06:00:08;;;;;;;12.43;6.90;;;;;;;;;;1462350;40;20421;-88
2021/05/26 06:01:10;;;;;;;17.77;7.63;;;;;;;;;;1466346;40;20960;-86
2021/05/26 06:02:11;;;;;;;14.75;7.20;;;;;;;;;;1466010;40;20474;-87
2021/05/26 06:03:13;;;;;;;18.65;7.47;;;;;;;;;;1457635;40;20438;-87
2021/05/26 06:04:14;;;;;;;21.10;7.80;;;;;;;;;;1458208;40;20508;-88
2021/05/26 06:05:16;;;;;;;18.75;7.07;;;;;;;;;;1465560;40;20471;-89
2021/05/26 06:06:17;;;;;;;14.57;7.57;;;;;;;;;;1466422;40;20412;-88
2021/05/26 06:07:19;;;;;;;14.95;7.72;;;;;;;;;;1460397;40;20912;-88
2021/05/26 06:08:21;;;;;;;17.45;8.00;;;;;;;;;;1461598;40;20441;-88
2021/05/26 06:09:23;;;;;;;12.82;7.30;;;;;;;;;;1461682;40;20508;-89